sensor_id;sensor_type;location;lat;lon;timestamp;P1;durP1;ratioP1;P2;durP2;ratioP2
17494;SDS011;8864;51.970;4.614;2022-09-03T00:01:15;3.00;;;1.25;;
17494;SDS011;8864;51.970;4.614;2022-09-03T00:03:47;2.83;;;1.02;;
17494;SDS011;8864;51.970;4.614;2022-09-03T00:06:20;9.40;;;1.35;;
17494;SDS011;8864;51.970;4.614;2022-09-03T00:08:51;4.32;;;1.38;;
17494;SDS011;8864;51.970;4.614;2022-09-03T00:11:24;5.90;;;1.40;;
17494;SDS011;8864;51.970;4.614;2022-09-03T00:13:58;2.70;;;1.20;;
17494;SDS011;8864;51.970;4.614;2022-09-03T00:16:30;3.03;;;1.20;;
17494;SDS011;8864;51.970;4.614;2022-09-03T00:19:05;1.60;;;1.05;;
17494;SDS011;8864;51.970;4.614;2022-09-03T00:21:36;2.13;;;1.20;;
17494;SDS011;8864;51.970;4.614;2022-09-03T00:24:05;3.83;;;1.30;;
17494;SDS011;8864;51.970;4.614;2022-09-03T00:26:36;3.60;;;1.35;;
17494;SDS011;8864;51.970;4.614;2022-09-03T00:29:06;3.85;;;1.48;;
17494;SDS011;8864;51.970;4.614;2022-09-03T00:31:38;5.85;;;1.63;;
17494;SDS011;8864;51.970;4.614;2022-09-03T00:34:09;6.82;;;1.38;;
17494;SDS011;8864;51.970;4.614;2022-09-03T00:36:44;2.33;;;1.10;;
17494;SDS011;8864;51.970;4.614;2022-09-03T00:39:12;3.65;;;1.05;;
17494;SDS011;8864;51.970;4.614;2022-09-03T00:41:43;2.65;;;1.35;;
17494;SDS011;8864;51.970;4.614;2022-09-03T00:44:29;2.25;;;1.30;;
17494;SDS011;8864;51.970;4.614;2022-09-03T00:47:08;2.50;;;1.00;;
17494;SDS011;8864;51.970;4.614;2022-09-03T00:49:43;2.78;;;1.17;;
17494;SDS011;8864;51.970;4.614;2022-09-03T00:52:19;6.80;;;1.45;;
17494;SDS011;8864;51.970;4.614;2022-09-03T00:54:53;6.93;;;1.60;;
17494;SDS011;8864;51.970;4.614;2022-09-03T00:57:29;4.75;;;1.25;;
17494;SDS011;8864;51.970;4.614;2022-09-03T01:00:06;9.68;;;1.20;;
17494;SDS011;8864;51.970;4.614;2022-09-03T01:05:30;1.95;;;1.10;;
17494;SDS011;8864;51.970;4.614;2022-09-03T01:08:18;2.45;;;1.00;;
17494;SDS011;8864;51.970;4.614;2022-09-03T01:10:56;4.38;;;1.10;;
17494;SDS011;8864;51.970;4.614;2022-09-03T01:13:35;4.07;;;1.35;;
17494;SDS011;8864;51.970;4.614;2022-09-03T01:16:08;5.90;;;1.30;;
17494;SDS011;8864;51.970;4.614;2022-09-03T01:18:41;2.78;;;1.00;;
17494;SDS011;8864;51.970;4.614;2022-09-03T01:21:20;1.40;;;1.10;;
17494;SDS011;8864;51.970;4.614;2022-09-03T01:24:07;4.03;;;1.17;;
17494;SDS011;8864;51.970;4.614;2022-09-03T01:26:54;3.60;;;1.35;;
17494;SDS011;8864;51.970;4.614;2022-09-03T01:29:37;2.20;;;1.20;;
17494;SDS011;8864;51.970;4.614;2022-09-03T01:32:10;5.47;;;1.30;;
17494;SDS011;8864;51.970;4.614;2022-09-03T01:34:47;3.30;;;1.20;;
17494;SDS011;8864;51.970;4.614;2022-09-03T01:37:21;3.70;;;1.42;;
17494;SDS011;8864;51.970;4.614;2022-09-03T01:39:57;1.52;;;1.17;;
17494;SDS011;8864;51.970;4.614;2022-09-03T01:42:32;3.30;;;1.00;;
17494;SDS011;8864;51.970;4.614;2022-09-03T01:48:09;3.17;;;1.17;;
17494;SDS011;8864;51.970;4.614;2022-09-03T01:50:45;2.55;;;1.38;;
17494;SDS011;8864;51.970;4.614;2022-09-03T01:53:25;2.90;;;1.45;;
17494;SDS011;8864;51.970;4.614;2022-09-03T01:56:02;3.60;;;1.20;;
17494;SDS011;8864;51.970;4.614;2022-09-03T01:58:39;4.38;;;1.10;;
17494;SDS011;8864;51.970;4.614;2022-09-03T02:01:13;1.92;;;1.02;;
17494;SDS011;8864;51.970;4.614;2022-09-03T02:03:47;2.58;;;1.15;;
17494;SDS011;8864;51.970;4.614;2022-09-03T02:06:14;3.05;;;1.50;;
17494;SDS011;8864;51.970;4.614;2022-09-03T02:08:44;3.55;;;1.13;;
17494;SDS011;8864;51.970;4.614;2022-09-03T02:11:11;2.97;;;1.10;;
17494;SDS011;8864;51.970;4.614;2022-09-03T02:13:39;2.03;;;1.17;;
17494;SDS011;8864;51.970;4.614;2022-09-03T02:16:09;2.35;;;1.30;;
17494;SDS011;8864;51.970;4.614;2022-09-03T02:18:42;2.40;;;1.20;;
17494;SDS011;8864;51.970;4.614;2022-09-03T02:21:12;2.65;;;1.23;;
17494;SDS011;8864;51.970;4.614;2022-09-03T02:23:41;4.93;;;1.20;;
17494;SDS011;8864;51.970;4.614;2022-09-03T02:26:08;2.72;;;1.10;;
17494;SDS011;8864;51.970;4.614;2022-09-03T02:28:38;4.03;;;1.20;;
17494;SDS011;8864;51.970;4.614;2022-09-03T02:31:05;3.13;;;1.20;;
17494;SDS011;8864;51.970;4.614;2022-09-03T02:33:34;2.17;;;1.40;;
17494;SDS011;8864;51.970;4.614;2022-09-03T02:36:05;2.25;;;1.20;;
17494;SDS011;8864;51.970;4.614;2022-09-03T02:38:34;2.55;;;1.20;;
17494;SDS011;8864;51.970;4.614;2022-09-03T02:41:01;1.80;;;1.08;;
17494;SDS011;8864;51.970;4.614;2022-09-03T02:43:29;3.38;;;1.20;;
17494;SDS011;8864;51.970;4.614;2022-09-03T02:46:03;5.30;;;1.27;;
17494;SDS011;8864;51.970;4.614;2022-09-03T02:48:32;2.70;;;1.20;;
17494;SDS011;8864;51.970;4.614;2022-09-03T02:50:59;6.25;;;1.23;;
17494;SDS011;8864;51.970;4.614;2022-09-03T02:53:28;2.38;;;1.20;;
17494;SDS011;8864;51.970;4.614;2022-09-03T02:55:56;1.83;;;0.90;;
17494;SDS011;8864;51.970;4.614;2022-09-03T02:58:24;3.22;;;1.30;;
17494;SDS011;8864;51.970;4.614;2022-09-03T03:00:51;5.22;;;1.30;;
17494;SDS011;8864;51.970;4.614;2022-09-03T03:03:18;4.63;;;1.20;;
17494;SDS011;8864;51.970;4.614;2022-09-03T03:05:45;4.65;;;1.13;;
17494;SDS011;8864;51.970;4.614;2022-09-03T03:08:13;7.75;;;1.40;;
17494;SDS011;8864;51.970;4.614;2022-09-03T03:10:43;2.03;;;1.00;;
17494;SDS011;8864;51.970;4.614;2022-09-03T03:13:10;3.25;;;1.20;;
17494;SDS011;8864;51.970;4.614;2022-09-03T03:15:37;3.25;;;1.40;;
17494;SDS011;8864;51.970;4.614;2022-09-03T03:18:03;2.60;;;1.08;;
17494;SDS011;8864;51.970;4.614;2022-09-03T03:20:31;3.17;;;1.15;;
17494;SDS011;8864;51.970;4.614;2022-09-03T03:23:00;2.15;;;1.08;;
17494;SDS011;8864;51.970;4.614;2022-09-03T03:25:27;2.75;;;1.30;;
17494;SDS011;8864;51.970;4.614;2022-09-03T03:27:55;2.78;;;1.20;;
17494;SDS011;8864;51.970;4.614;2022-09-03T03:30:22;4.47;;;1.15;;
17494;SDS011;8864;51.970;4.614;2022-09-03T03:32:49;3.53;;;1.55;;
17494;SDS011;8864;51.970;4.614;2022-09-03T03:35:18;5.10;;;1.27;;
17494;SDS011;8864;51.970;4.614;2022-09-03T03:37:45;5.47;;;1.40;;
17494;SDS011;8864;51.970;4.614;2022-09-03T03:40:12;2.40;;;1.30;;
17494;SDS011;8864;51.970;4.614;2022-09-03T03:42:39;3.22;;;1.15;;
17494;SDS011;8864;51.970;4.614;2022-09-03T03:45:08;2.53;;;1.33;;
17494;SDS011;8864;51.970;4.614;2022-09-03T03:47:35;3.55;;;1.50;;
17494;SDS011;8864;51.970;4.614;2022-09-03T03:50:03;3.40;;;1.40;;
17494;SDS011;8864;51.970;4.614;2022-09-03T03:52:30;4.60;;;1.23;;
17494;SDS011;8864;51.970;4.614;2022-09-03T03:54:57;4.63;;;1.40;;
17494;SDS011;8864;51.970;4.614;2022-09-03T03:57:24;3.03;;;1.45;;
17494;SDS011;8864;51.970;4.614;2022-09-03T03:59:50;4.75;;;1.50;;
17494;SDS011;8864;51.970;4.614;2022-09-03T04:02:18;5.15;;;1.20;;
17494;SDS011;8864;51.970;4.614;2022-09-03T04:04:45;5.07;;;1.50;;
17494;SDS011;8864;51.970;4.614;2022-09-03T04:07:12;7.18;;;1.55;;
17494;SDS011;8864;51.970;4.614;2022-09-03T04:09:39;3.13;;;1.40;;
17494;SDS011;8864;51.970;4.614;2022-09-03T04:12:06;3.15;;;1.10;;
17494;SDS011;8864;51.970;4.614;2022-09-03T04:14:34;3.67;;;1.40;;
17494;SDS011;8864;51.970;4.614;2022-09-03T04:17:00;4.25;;;1.38;;
17494;SDS011;8864;51.970;4.614;2022-09-03T04:19:29;9.65;;;1.85;;
17494;SDS011;8864;51.970;4.614;2022-09-03T04:21:56;6.78;;;1.40;;
17494;SDS011;8864;51.970;4.614;2022-09-03T04:24:23;8.80;;;1.42;;
17494;SDS011;8864;51.970;4.614;2022-09-03T04:26:50;12.07;;;1.50;;
17494;SDS011;8864;51.970;4.614;2022-09-03T04:29:18;2.92;;;1.33;;
17494;SDS011;8864;51.970;4.614;2022-09-03T04:31:46;2.85;;;1.17;;
17494;SDS011;8864;51.970;4.614;2022-09-03T04:34:26;3.17;;;1.20;;
17494;SDS011;8864;51.970;4.614;2022-09-03T04:36:54;3.78;;;1.40;;
17494;SDS011;8864;51.970;4.614;2022-09-03T04:39:23;5.03;;;1.30;;
17494;SDS011;8864;51.970;4.614;2022-09-03T04:41:50;6.38;;;1.40;;
17494;SDS011;8864;51.970;4.614;2022-09-03T04:44:16;2.55;;;1.35;;
17494;SDS011;8864;51.970;4.614;2022-09-03T04:46:43;5.63;;;1.40;;
17494;SDS011;8864;51.970;4.614;2022-09-03T04:49:11;5.10;;;1.63;;
17494;SDS011;8864;51.970;4.614;2022-09-03T04:51:39;7.78;;;1.45;;
17494;SDS011;8864;51.970;4.614;2022-09-03T04:54:07;2.08;;;1.30;;
17494;SDS011;8864;51.970;4.614;2022-09-03T04:56:34;3.90;;;1.15;;
17494;SDS011;8864;51.970;4.614;2022-09-03T04:59:02;3.00;;;1.33;;
17494;SDS011;8864;51.970;4.614;2022-09-03T05:01:31;1.83;;;1.20;;
17494;SDS011;8864;51.970;4.614;2022-09-03T05:04:01;3.78;;;1.48;;
17494;SDS011;8864;51.970;4.614;2022-09-03T05:06:29;2.05;;;1.15;;
17494;SDS011;8864;51.970;4.614;2022-09-03T05:08:57;3.20;;;1.50;;
17494;SDS011;8864;51.970;4.614;2022-09-03T05:11:26;2.85;;;1.35;;
17494;SDS011;8864;51.970;4.614;2022-09-03T05:13:54;3.25;;;1.27;;
17494;SDS011;8864;51.970;4.614;2022-09-03T05:16:22;3.00;;;1.38;;
17494;SDS011;8864;51.970;4.614;2022-09-03T05:18:50;4.40;;;1.20;;
17494;SDS011;8864;51.970;4.614;2022-09-03T05:21:18;3.42;;;1.38;;
17494;SDS011;8864;51.970;4.614;2022-09-03T05:23:45;6.93;;;1.63;;
17494;SDS011;8864;51.970;4.614;2022-09-03T05:26:17;3.95;;;1.40;;
17494;SDS011;8864;51.970;4.614;2022-09-03T05:28:46;5.18;;;1.60;;
17494;SDS011;8864;51.970;4.614;2022-09-03T05:31:14;2.58;;;1.33;;
17494;SDS011;8864;51.970;4.614;2022-09-03T05:33:42;3.92;;;1.17;;
17494;SDS011;8864;51.970;4.614;2022-09-03T05:36:10;3.10;;;1.15;;
17494;SDS011;8864;51.970;4.614;2022-09-03T05:38:38;3.50;;;1.30;;
17494;SDS011;8864;51.970;4.614;2022-09-03T05:41:06;5.22;;;1.42;;
17494;SDS011;8864;51.970;4.614;2022-09-03T05:43:34;2.05;;;1.20;;
17494;SDS011;8864;51.970;4.614;2022-09-03T05:46:03;2.80;;;1.20;;
17494;SDS011;8864;51.970;4.614;2022-09-03T05:48:33;2.80;;;1.42;;
17494;SDS011;8864;51.970;4.614;2022-09-03T05:51:01;4.78;;;1.30;;
17494;SDS011;8864;51.970;4.614;2022-09-03T05:53:29;3.15;;;1.42;;
17494;SDS011;8864;51.970;4.614;2022-09-03T05:55:58;3.45;;;1.23;;
17494;SDS011;8864;51.970;4.614;2022-09-03T05:58:28;5.15;;;1.50;;
17494;SDS011;8864;51.970;4.614;2022-09-03T06:00:55;3.85;;;1.45;;
17494;SDS011;8864;51.970;4.614;2022-09-03T06:03:23;2.78;;;1.40;;
17494;SDS011;8864;51.970;4.614;2022-09-03T06:05:50;4.72;;;1.25;;
17494;SDS011;8864;51.970;4.614;2022-09-03T06:08:18;3.30;;;1.52;;
17494;SDS011;8864;51.970;4.614;2022-09-03T06:10:45;5.25;;;1.48;;
17494;SDS011;8864;51.970;4.614;2022-09-03T06:13:12;3.25;;;1.23;;
17494;SDS011;8864;51.970;4.614;2022-09-03T06:15:39;2.65;;;1.35;;
17494;SDS011;8864;51.970;4.614;2022-09-03T06:18:06;4.93;;;1.40;;
17494;SDS011;8864;51.970;4.614;2022-09-03T06:20:34;4.63;;;1.35;;
17494;SDS011;8864;51.970;4.614;2022-09-03T06:23:01;3.30;;;1.52;;
17494;SDS011;8864;51.970;4.614;2022-09-03T06:25:28;3.28;;;1.50;;
17494;SDS011;8864;51.970;4.614;2022-09-03T06:27:55;6.35;;;1.52;;
17494;SDS011;8864;51.970;4.614;2022-09-03T06:30:23;4.28;;;1.30;;
17494;SDS011;8864;51.970;4.614;2022-09-03T06:32:51;2.25;;;1.27;;
17494;SDS011;8864;51.970;4.614;2022-09-03T06:35:18;4.60;;;1.30;;
17494;SDS011;8864;51.970;4.614;2022-09-03T06:37:46;4.10;;;1.15;;
17494;SDS011;8864;51.970;4.614;2022-09-03T06:40:13;2.38;;;1.40;;
17494;SDS011;8864;51.970;4.614;2022-09-03T06:42:53;4.07;;;1.65;;
17494;SDS011;8864;51.970;4.614;2022-09-03T06:45:23;4.00;;;1.20;;
17494;SDS011;8864;51.970;4.614;2022-09-03T06:47:50;5.35;;;1.42;;
17494;SDS011;8864;51.970;4.614;2022-09-03T06:50:16;1.95;;;1.30;;
17494;SDS011;8864;51.970;4.614;2022-09-03T06:52:43;3.58;;;1.30;;
17494;SDS011;8864;51.970;4.614;2022-09-03T06:55:15;3.95;;;1.40;;
17494;SDS011;8864;51.970;4.614;2022-09-03T06:57:42;4.43;;;1.40;;
17494;SDS011;8864;51.970;4.614;2022-09-03T07:00:09;3.10;;;1.27;;
17494;SDS011;8864;51.970;4.614;2022-09-03T07:02:37;27.17;;;4.93;;
17494;SDS011;8864;51.970;4.614;2022-09-03T07:05:05;36.60;;;7.65;;
17494;SDS011;8864;51.970;4.614;2022-09-03T07:07:33;43.15;;;7.60;;
17494;SDS011;8864;51.970;4.614;2022-09-03T07:10:01;33.00;;;7.00;;
17494;SDS011;8864;51.970;4.614;2022-09-03T07:12:28;23.42;;;6.03;;
17494;SDS011;8864;51.970;4.614;2022-09-03T07:14:59;24.17;;;5.78;;
17494;SDS011;8864;51.970;4.614;2022-09-03T07:17:25;24.45;;;5.68;;
17494;SDS011;8864;51.970;4.614;2022-09-03T07:19:52;22.30;;;4.15;;
17494;SDS011;8864;51.970;4.614;2022-09-03T07:22:19;20.77;;;4.28;;
17494;SDS011;8864;51.970;4.614;2022-09-03T07:24:45;18.48;;;3.95;;
17494;SDS011;8864;51.970;4.614;2022-09-03T07:27:14;12.75;;;2.60;;
17494;SDS011;8864;51.970;4.614;2022-09-03T07:29:40;12.20;;;3.22;;
17494;SDS011;8864;51.970;4.614;2022-09-03T07:32:07;7.53;;;2.08;;
17494;SDS011;8864;51.970;4.614;2022-09-03T07:34:34;6.40;;;1.85;;
17494;SDS011;8864;51.970;4.614;2022-09-03T07:37:01;7.18;;;1.88;;
17494;SDS011;8864;51.970;4.614;2022-09-03T07:39:29;6.75;;;1.95;;
17494;SDS011;8864;51.970;4.614;2022-09-03T07:41:57;5.05;;;1.67;;
17494;SDS011;8864;51.970;4.614;2022-09-03T07:44:26;5.72;;;1.77;;
17494;SDS011;8864;51.970;4.614;2022-09-03T07:46:53;7.00;;;1.60;;
17494;SDS011;8864;51.970;4.614;2022-09-03T07:49:20;4.85;;;1.55;;
17494;SDS011;8864;51.970;4.614;2022-09-03T07:51:47;8.82;;;1.70;;
17494;SDS011;8864;51.970;4.614;2022-09-03T07:54:16;5.13;;;1.45;;
17494;SDS011;8864;51.970;4.614;2022-09-03T07:56:44;4.85;;;1.52;;
17494;SDS011;8864;51.970;4.614;2022-09-03T07:59:11;2.38;;;1.40;;
17494;SDS011;8864;51.970;4.614;2022-09-03T08:01:39;4.63;;;1.40;;
17494;SDS011;8864;51.970;4.614;2022-09-03T08:04:06;5.40;;;1.40;;
17494;SDS011;8864;51.970;4.614;2022-09-03T08:06:32;5.10;;;1.58;;
17494;SDS011;8864;51.970;4.614;2022-09-03T08:09:00;3.63;;;1.30;;
17494;SDS011;8864;51.970;4.614;2022-09-03T08:11:27;7.72;;;1.45;;
17494;SDS011;8864;51.970;4.614;2022-09-03T08:13:55;4.43;;;1.65;;
17494;SDS011;8864;51.970;4.614;2022-09-03T08:16:26;2.70;;;1.15;;
17494;SDS011;8864;51.970;4.614;2022-09-03T08:18:55;6.10;;;1.55;;
17494;SDS011;8864;51.970;4.614;2022-09-03T08:21:22;4.70;;;1.35;;
17494;SDS011;8864;51.970;4.614;2022-09-03T08:23:50;4.15;;;1.55;;
17494;SDS011;8864;51.970;4.614;2022-09-03T08:26:19;3.67;;;1.30;;
17494;SDS011;8864;51.970;4.614;2022-09-03T08:28:46;2.50;;;1.20;;
17494;SDS011;8864;51.970;4.614;2022-09-03T08:31:14;2.90;;;1.33;;
17494;SDS011;8864;51.970;4.614;2022-09-03T08:33:43;3.42;;;1.30;;
17494;SDS011;8864;51.970;4.614;2022-09-03T08:36:14;8.88;;;1.40;;
17494;SDS011;8864;51.970;4.614;2022-09-03T08:38:43;4.40;;;1.25;;
17494;SDS011;8864;51.970;4.614;2022-09-03T08:41:12;5.20;;;1.65;;
17494;SDS011;8864;51.970;4.614;2022-09-03T08:46:33;2.70;;;1.40;;
17494;SDS011;8864;51.970;4.614;2022-09-03T08:49:09;2.22;;;1.17;;
17494;SDS011;8864;51.970;4.614;2022-09-03T08:51:41;3.78;;;1.40;;
17494;SDS011;8864;51.970;4.614;2022-09-03T08:54:12;2.97;;;1.55;;
17494;SDS011;8864;51.970;4.614;2022-09-03T08:56:39;3.53;;;1.30;;
17494;SDS011;8864;51.970;4.614;2022-09-03T08:59:08;4.25;;;1.27;;
17494;SDS011;8864;51.970;4.614;2022-09-03T09:01:42;2.88;;;1.30;;
17494;SDS011;8864;51.970;4.614;2022-09-03T09:04:21;2.97;;;1.27;;
17494;SDS011;8864;51.970;4.614;2022-09-03T09:07:02;1.70;;;1.00;;
17494;SDS011;8864;51.970;4.614;2022-09-03T09:09:34;2.70;;;1.40;;
17494;SDS011;8864;51.970;4.614;2022-09-03T09:12:14;2.67;;;1.40;;
17494;SDS011;8864;51.970;4.614;2022-09-03T09:14:57;3.33;;;1.02;;
17494;SDS011;8864;51.970;4.614;2022-09-03T09:17:35;5.18;;;1.30;;
17494;SDS011;8864;51.970;4.614;2022-09-03T09:20:20;6.13;;;1.48;;
17494;SDS011;8864;51.970;4.614;2022-09-03T09:22:55;2.25;;;1.10;;
17494;SDS011;8864;51.970;4.614;2022-09-03T09:25:25;2.72;;;1.20;;
17494;SDS011;8864;51.970;4.614;2022-09-03T09:27:56;2.33;;;1.08;;
17494;SDS011;8864;51.970;4.614;2022-09-03T09:30:26;3.85;;;1.38;;
17494;SDS011;8864;51.970;4.614;2022-09-03T09:32:54;2.20;;;1.15;;
17494;SDS011;8864;51.970;4.614;2022-09-03T09:35:21;3.50;;;1.10;;
17494;SDS011;8864;51.970;4.614;2022-09-03T09:37:49;2.72;;;1.08;;
17494;SDS011;8864;51.970;4.614;2022-09-03T09:40:23;4.03;;;1.13;;
17494;SDS011;8864;51.970;4.614;2022-09-03T09:43:02;3.00;;;1.00;;
17494;SDS011;8864;51.970;4.614;2022-09-03T09:45:32;3.33;;;1.45;;
17494;SDS011;8864;51.970;4.614;2022-09-03T09:48:00;9.23;;;1.30;;
17494;SDS011;8864;51.970;4.614;2022-09-03T09:50:28;2.70;;;1.27;;
17494;SDS011;8864;51.970;4.614;2022-09-03T09:53:01;4.35;;;1.50;;
17494;SDS011;8864;51.970;4.614;2022-09-03T09:55:34;4.57;;;1.30;;
17494;SDS011;8864;51.970;4.614;2022-09-03T09:58:05;2.92;;;1.27;;
17494;SDS011;8864;51.970;4.614;2022-09-03T10:00:35;2.22;;;1.13;;
17494;SDS011;8864;51.970;4.614;2022-09-03T10:03:05;3.75;;;1.02;;
17494;SDS011;8864;51.970;4.614;2022-09-03T10:05:35;2.75;;;1.00;;
17494;SDS011;8864;51.970;4.614;2022-09-03T10:08:05;3.60;;;1.30;;
17494;SDS011;8864;51.970;4.614;2022-09-03T10:10:45;8.77;;;1.55;;
17494;SDS011;8864;51.970;4.614;2022-09-03T10:13:15;3.50;;;0.90;;
17494;SDS011;8864;51.970;4.614;2022-09-03T10:15:46;2.22;;;1.40;;
17494;SDS011;8864;51.970;4.614;2022-09-03T10:18:18;2.90;;;1.35;;
17494;SDS011;8864;51.970;4.614;2022-09-03T10:20:54;7.50;;;1.60;;
17494;SDS011;8864;51.970;4.614;2022-09-03T10:23:28;4.00;;;1.10;;
17494;SDS011;8864;51.970;4.614;2022-09-03T10:26:01;5.50;;;1.48;;
17494;SDS011;8864;51.970;4.614;2022-09-03T10:28:31;8.80;;;1.85;;
17494;SDS011;8864;51.970;4.614;2022-09-03T10:31:12;2.08;;;1.20;;
17494;SDS011;8864;51.970;4.614;2022-09-03T10:34:09;3.03;;;1.50;;
17494;SDS011;8864;51.970;4.614;2022-09-03T10:36:44;1.75;;;1.00;;
17494;SDS011;8864;51.970;4.614;2022-09-03T10:39:20;5.10;;;1.17;;
17494;SDS011;8864;51.970;4.614;2022-09-03T10:41:57;4.85;;;1.42;;
17494;SDS011;8864;51.970;4.614;2022-09-03T10:44:42;1.67;;;0.98;;
17494;SDS011;8864;51.970;4.614;2022-09-03T10:47:22;3.72;;;1.00;;
17494;SDS011;8864;51.970;4.614;2022-09-03T10:50:00;4.88;;;1.45;;
17494;SDS011;8864;51.970;4.614;2022-09-03T10:52:31;4.95;;;1.25;;
17494;SDS011;8864;51.970;4.614;2022-09-03T10:55:12;4.55;;;1.30;;
17494;SDS011;8864;51.970;4.614;2022-09-03T10:57:47;4.95;;;1.50;;
17494;SDS011;8864;51.970;4.614;2022-09-03T11:00:19;3.38;;;1.30;;
17494;SDS011;8864;51.970;4.614;2022-09-03T11:02:57;4.07;;;1.05;;
17494;SDS011;8864;51.970;4.614;2022-09-03T11:05:55;2.38;;;1.10;;
17494;SDS011;8864;51.970;4.614;2022-09-03T11:08:29;2.63;;;1.20;;
17494;SDS011;8864;51.970;4.614;2022-09-03T11:11:01;2.97;;;1.00;;
17494;SDS011;8864;51.970;4.614;2022-09-03T11:13:37;4.20;;;1.48;;
17494;SDS011;8864;51.970;4.614;2022-09-03T11:16:10;5.90;;;1.20;;
17494;SDS011;8864;51.970;4.614;2022-09-03T11:18:42;3.83;;;1.48;;
17494;SDS011;8864;51.970;4.614;2022-09-03T11:21:14;1.95;;;1.05;;
17494;SDS011;8864;51.970;4.614;2022-09-03T11:23:45;6.43;;;1.50;;
17494;SDS011;8864;51.970;4.614;2022-09-03T11:26:17;4.80;;;1.27;;
17494;SDS011;8864;51.970;4.614;2022-09-03T11:28:50;3.55;;;1.50;;
17494;SDS011;8864;51.970;4.614;2022-09-03T11:31:23;3.17;;;1.30;;
17494;SDS011;8864;51.970;4.614;2022-09-03T11:33:58;3.67;;;1.58;;
17494;SDS011;8864;51.970;4.614;2022-09-03T11:36:30;3.92;;;1.17;;
17494;SDS011;8864;51.970;4.614;2022-09-03T11:38:58;2.95;;;1.30;;
17494;SDS011;8864;51.970;4.614;2022-09-03T11:41:27;3.90;;;1.40;;
17494;SDS011;8864;51.970;4.614;2022-09-03T11:44:09;3.33;;;1.10;;
17494;SDS011;8864;51.970;4.614;2022-09-03T11:46:41;2.03;;;1.00;;
17494;SDS011;8864;51.970;4.614;2022-09-03T11:49:24;2.38;;;1.30;;
17494;SDS011;8864;51.970;4.614;2022-09-03T11:51:57;3.90;;;1.00;;
17494;SDS011;8864;51.970;4.614;2022-09-03T11:54:26;2.53;;;1.13;;
17494;SDS011;8864;51.970;4.614;2022-09-03T11:57:04;3.50;;;1.55;;
17494;SDS011;8864;51.970;4.614;2022-09-03T11:59:37;2.42;;;1.02;;
17494;SDS011;8864;51.970;4.614;2022-09-03T12:02:08;1.48;;;0.93;;
17494;SDS011;8864;51.970;4.614;2022-09-03T12:04:46;2.10;;;1.00;;
17494;SDS011;8864;51.970;4.614;2022-09-03T12:07:28;5.70;;;1.70;;
17494;SDS011;8864;51.970;4.614;2022-09-03T12:10:14;2.00;;;1.20;;
17494;SDS011;8864;51.970;4.614;2022-09-03T12:12:51;5.20;;;1.63;;
17494;SDS011;8864;51.970;4.614;2022-09-03T12:15:37;2.00;;;1.27;;
17494;SDS011;8864;51.970;4.614;2022-09-03T12:18:15;3.47;;;1.13;;
17494;SDS011;8864;51.970;4.614;2022-09-03T12:20:58;2.20;;;1.20;;
17494;SDS011;8864;51.970;4.614;2022-09-03T12:23:27;3.55;;;1.25;;
17494;SDS011;8864;51.970;4.614;2022-09-03T12:25:56;3.95;;;1.10;;
17494;SDS011;8864;51.970;4.614;2022-09-03T12:28:25;3.78;;;1.10;;
17494;SDS011;8864;51.970;4.614;2022-09-03T12:31:04;1.52;;;0.95;;
17494;SDS011;8864;51.970;4.614;2022-09-03T12:33:33;2.78;;;1.25;;
17494;SDS011;8864;51.970;4.614;2022-09-03T12:36:00;4.82;;;1.20;;
17494;SDS011;8864;51.970;4.614;2022-09-03T12:38:27;4.82;;;1.35;;
17494;SDS011;8864;51.970;4.614;2022-09-03T12:40:56;5.63;;;1.45;;
17494;SDS011;8864;51.970;4.614;2022-09-03T12:43:26;5.45;;;1.10;;
17494;SDS011;8864;51.970;4.614;2022-09-03T12:45:55;5.57;;;1.10;;
17494;SDS011;8864;51.970;4.614;2022-09-03T12:48:22;4.13;;;1.50;;
17494;SDS011;8864;51.970;4.614;2022-09-03T12:50:59;2.88;;;1.35;;
17494;SDS011;8864;51.970;4.614;2022-09-03T12:53:27;4.22;;;1.30;;
17494;SDS011;8864;51.970;4.614;2022-09-03T12:55:57;2.67;;;1.40;;
17494;SDS011;8864;51.970;4.614;2022-09-03T12:58:27;5.10;;;1.10;;
17494;SDS011;8864;51.970;4.614;2022-09-03T13:00:59;4.32;;;1.55;;
17494;SDS011;8864;51.970;4.614;2022-09-03T13:03:37;7.22;;;1.60;;
17494;SDS011;8864;51.970;4.614;2022-09-03T13:06:11;6.97;;;1.40;;
17494;SDS011;8864;51.970;4.614;2022-09-03T13:08:40;3.42;;;1.15;;
17494;SDS011;8864;51.970;4.614;2022-09-03T13:11:14;4.35;;;1.27;;
17494;SDS011;8864;51.970;4.614;2022-09-03T13:13:49;3.75;;;1.13;;
17494;SDS011;8864;51.970;4.614;2022-09-03T13:16:28;3.90;;;1.30;;
17494;SDS011;8864;51.970;4.614;2022-09-03T13:19:19;2.17;;;1.50;;
17494;SDS011;8864;51.970;4.614;2022-09-03T13:21:51;3.95;;;1.40;;
17494;SDS011;8864;51.970;4.614;2022-09-03T13:24:36;2.50;;;1.30;;
17494;SDS011;8864;51.970;4.614;2022-09-03T13:27:14;6.15;;;1.58;;
17494;SDS011;8864;51.970;4.614;2022-09-03T13:29:55;3.90;;;1.20;;
17494;SDS011;8864;51.970;4.614;2022-09-03T13:32:34;3.75;;;1.33;;
17494;SDS011;8864;51.970;4.614;2022-09-03T13:35:10;3.60;;;1.20;;
17494;SDS011;8864;51.970;4.614;2022-09-03T13:37:42;5.53;;;1.40;;
17494;SDS011;8864;51.970;4.614;2022-09-03T13:40:14;3.53;;;1.50;;
17494;SDS011;8864;51.970;4.614;2022-09-03T13:42:44;3.33;;;1.25;;
17494;SDS011;8864;51.970;4.614;2022-09-03T13:45:20;4.30;;;1.40;;
17494;SDS011;8864;51.970;4.614;2022-09-03T13:47:57;3.90;;;1.13;;
17494;SDS011;8864;51.970;4.614;2022-09-03T13:50:50;8.80;;;1.15;;
17494;SDS011;8864;51.970;4.614;2022-09-03T13:53:24;5.25;;;1.50;;
17494;SDS011;8864;51.970;4.614;2022-09-03T13:55:59;6.05;;;1.73;;
17494;SDS011;8864;51.970;4.614;2022-09-03T13:58:33;5.10;;;1.30;;
17494;SDS011;8864;51.970;4.614;2022-09-03T14:01:05;3.30;;;1.52;;
17494;SDS011;8864;51.970;4.614;2022-09-03T14:03:43;3.72;;;1.60;;
17494;SDS011;8864;51.970;4.614;2022-09-03T14:06:17;3.47;;;1.27;;
17494;SDS011;8864;51.970;4.614;2022-09-03T14:08:55;2.70;;;1.17;;
17494;SDS011;8864;51.970;4.614;2022-09-03T14:11:29;7.72;;;1.60;;
17494;SDS011;8864;51.970;4.614;2022-09-03T14:14:05;2.63;;;1.20;;
17494;SDS011;8864;51.970;4.614;2022-09-03T14:16:41;3.88;;;1.25;;
17494;SDS011;8864;51.970;4.614;2022-09-03T14:19:16;7.65;;;1.70;;
17494;SDS011;8864;51.970;4.614;2022-09-03T14:21:49;3.25;;;1.38;;
17494;SDS011;8864;51.970;4.614;2022-09-03T14:24:20;3.17;;;1.33;;
17494;SDS011;8864;51.970;4.614;2022-09-03T14:26:50;2.20;;;1.30;;
17494;SDS011;8864;51.970;4.614;2022-09-03T14:29:20;1.77;;;1.05;;
17494;SDS011;8864;51.970;4.614;2022-09-03T14:31:55;2.47;;;1.20;;
17494;SDS011;8864;51.970;4.614;2022-09-03T14:34:37;2.30;;;1.40;;
17494;SDS011;8864;51.970;4.614;2022-09-03T14:37:18;3.92;;;1.40;;
17494;SDS011;8864;51.970;4.614;2022-09-03T14:40:00;5.55;;;1.13;;
17494;SDS011;8864;51.970;4.614;2022-09-03T14:42:40;4.18;;;1.42;;
17494;SDS011;8864;51.970;4.614;2022-09-03T14:48:29;2.58;;;1.42;;
17494;SDS011;8864;51.970;4.614;2022-09-03T14:51:13;2.67;;;1.15;;
17494;SDS011;8864;51.970;4.614;2022-09-03T14:54:00;3.65;;;1.40;;
17494;SDS011;8864;51.970;4.614;2022-09-03T14:56:48;3.78;;;1.73;;
17494;SDS011;8864;51.970;4.614;2022-09-03T14:59:26;3.72;;;1.45;;
17494;SDS011;8864;51.970;4.614;2022-09-03T15:02:10;3.85;;;1.80;;
17494;SDS011;8864;51.970;4.614;2022-09-03T15:04:55;6.75;;;1.73;;
17494;SDS011;8864;51.970;4.614;2022-09-03T15:07:35;3.17;;;1.30;;
17494;SDS011;8864;51.970;4.614;2022-09-03T15:10:11;3.08;;;1.40;;
17494;SDS011;8864;51.970;4.614;2022-09-03T15:12:45;1.77;;;1.20;;
17494;SDS011;8864;51.970;4.614;2022-09-03T15:15:17;3.58;;;1.45;;
17494;SDS011;8864;51.970;4.614;2022-09-03T15:17:54;2.17;;;1.45;;
17494;SDS011;8864;51.970;4.614;2022-09-03T15:20:31;2.20;;;1.40;;
17494;SDS011;8864;51.970;4.614;2022-09-03T15:23:09;2.13;;;1.48;;
17494;SDS011;8864;51.970;4.614;2022-09-03T15:25:57;2.90;;;1.30;;
17494;SDS011;8864;51.970;4.614;2022-09-03T15:28:58;6.40;;;1.50;;
17494;SDS011;8864;51.970;4.614;2022-09-03T15:31:49;3.33;;;1.40;;
17494;SDS011;8864;51.970;4.614;2022-09-03T15:34:31;3.95;;;1.73;;
17494;SDS011;8864;51.970;4.614;2022-09-03T15:37:07;2.35;;;1.60;;
17494;SDS011;8864;51.970;4.614;2022-09-03T15:39:39;6.38;;;1.50;;
17494;SDS011;8864;51.970;4.614;2022-09-03T15:42:10;2.72;;;1.50;;